Celsius Mumbai — V7CU2 — position and weather

sailwx.info

Track history (hours):
 
Tides and Currents Weather Stations Pressure Air Temp Water Temp Dewpoint Dewpoint Depression Visibility Wind Speed Wind Dir Waves Ship Positions

Celsius Mumbai

Last reported at 2018-Feb-25 07:59 UTC. Time now 2018-Feb-25 08:19 UTC.
Position N 51°54' E 004°22'.

Length 144 m; draft 8.4 m.

Type: Ship (hazmat cat B). MMSI: 538005324.

Date/timePositionNaut miles runAvg speedWind from/ knotsBaromVisibWave heightAir tempDewpointWater temp
2018-Feb-25 07:59N 51°54' E 004°22'0 0.0
2018-Feb-25 07:29N 51°54' E 004°22'0 0.0
2018-Feb-25 07:00N 51°54' E 004°22'0 0.0
2018-Feb-25 06:27N 51°54' E 004°22'0 0.0
2018-Feb-25 05:59N 51°54' E 004°22'0 0.0
2018-Feb-25 05:26N 51°54' E 004°22'0 0.0
2018-Feb-25 04:59N 51°54' E 004°22'0 0.0
2018-Feb-25 04:29N 51°54' E 004°22'0 0.0
2018-Feb-25 03:59N 51°54' E 004°22'0 0.0
2018-Feb-25 03:29N 51°54' E 004°22'0 0.0
2018-Feb-25 02:59N 51°54' E 004°22'0 0.0
2018-Feb-25 02:29N 51°54' E 004°22'0 0.0
2018-Feb-25 01:59N 51°54' E 004°22'0 0.0
2018-Feb-25 01:30N 51°54' E 004°22'0 0.0
2018-Feb-25 00:59N 51°54' E 004°22'0 0.0
2018-Feb-25 00:29N 51°54' E 004°22'0 0.0
2018-Feb-24 23:53N 51°54' E 004°22'0 0.0
2018-Feb-24 23:29N 51°54' E 004°22'0 0.0
2018-Feb-24 22:59N 51°54' E 004°22'0 0.0
2018-Feb-24 22:29N 51°54' E 004°22'0 0.0
2018-Feb-24 21:59N 51°54' E 004°22'0 0.0
2018-Feb-24 21:29N 51°54' E 004°22'0 0.0
2018-Feb-24 20:59N 51°54' E 004°22'0 0.0
2018-Feb-24 20:17N 51°54' E 004°22'0 0.0
2018-Feb-24 19:56N 51°54' E 004°22'0 0.0
2018-Feb-24 19:11N 51°54' E 004°22'0 0.0
2018-Feb-24 18:59N 51°54' E 004°22'0 0.0
2018-Feb-24 18:29N 51°54' E 004°22'0 0.0
2018-Feb-24 17:59N 51°54' E 004°22'0 0.0
2018-Feb-24 17:29N 51°54' E 004°22'0 0.0
2018-Feb-24 16:59N 51°54' E 004°22'0 0.0
2018-Feb-24 16:29N 51°54' E 004°22'0 0.0
2018-Feb-24 15:59N 51°54' E 004°22'0 0.0
2018-Feb-24 15:29N 51°54' E 004°22'0 0.0
2018-Feb-24 14:50N 51°54' E 004°22'0 0.0
2018-Feb-24 14:26N 51°54' E 004°22'0 0.0
2018-Feb-24 13:59N 51°54' E 004°22'0 0.0
2018-Feb-24 13:29N 51°54' E 004°22'0 0.2
2018-Feb-24 13:00N 51°54' E 004°22'3 5.1
2018-Feb-24 12:31N 51°54' E 004°17'4 7.2
2018-Feb-24 12:00N 51°56' E 004°13'4 7.1
2018-Feb-24 11:31N 51°58' E 004°08'4 8.2
2018-Feb-24 11:00N 51°60' E 004°02'5 9.8
2018-Feb-24 10:31N 51°59' E 003°54'510.4
2018-Feb-24 10:00N 51°58' E 003°46'2 4.4
2018-Feb-24 09:30N 51°56' E 003°46'0 0.1
2018-Feb-24 08:59N 51°56' E 003°46'0 0.0
2018-Feb-24 08:29N 51°56' E 003°46'0 0.0
2018-Feb-24 07:35N 51°56' E 003°46'0 0.2
2018-Feb-24 07:26N 51°56' E 003°46'0 0.2
2018-Feb-24 06:59N 51°56' E 003°45'0 0.1
2018-Feb-24 06:23N 51°56' E 003°45'0 0.1
2018-Feb-24 05:59N 51°56' E 003°45'0 0.0
2018-Feb-24 05:23N 51°56' E 003°45'0 0.0
2018-Feb-24 04:56N 51°56' E 003°45'0 0.1
2018-Feb-24 04:26N 51°56' E 003°45'0 0.0
2018-Feb-24 03:59N 51°56' E 003°45'0 0.0
2018-Feb-24 03:29N 51°56' E 003°45'0 0.0
2018-Feb-24 02:53N 51°56' E 003°45'0 0.0
2018-Feb-24 02:29N 51°56' E 003°45'0 0.0
2018-Feb-24 01:59N 51°56' E 003°45'0 0.0
2018-Feb-24 01:29N 51°56' E 003°45'0 0.0
2018-Feb-24 00:59N 51°56' E 003°45'0 0.0
2018-Feb-24 00:29N 51°56' E 003°45'0 0.0
2018-Feb-23 23:41N 51°56' E 003°45'0 0.0
2018-Feb-23 23:26N 51°56' E 003°45'0 0.0
2018-Feb-23 22:50N 51°56' E 003°45'0 0.0
2018-Feb-23 22:20N 51°56' E 003°45'0 0.1
2018-Feb-23 21:59N 51°56' E 003°45'0 0.3
2018-Feb-23 21:29N 51°56' E 003°46'0 0.1
2018-Feb-23 20:59N 51°56' E 003°46'0 0.0
2018-Feb-23 20:29N 51°56' E 003°46'0 0.0
2018-Feb-23 19:50N 51°56' E 003°46'0 0.0
2018-Feb-23 19:26N 51°56' E 003°46'0 0.0
2018-Feb-23 18:59N 51°56' E 003°46'0 0.2
2018-Feb-23 18:29N 51°56' E 003°46'0 0.2
2018-Feb-23 17:56N 51°56' E 003°45'0 0.1
2018-Feb-23 17:26N 51°56' E 003°45'0 0.0
2018-Feb-23 16:53N 51°56' E 003°45'0 0.0
2018-Feb-23 16:20N 51°56' E 003°45'0 0.0
2018-Feb-23 15:47N 51°56' E 003°45'0 0.0
2018-Feb-23 15:20N 51°56' E 003°45'0 0.0
2018-Feb-23 14:56N 51°56' E 003°45'0 0.0
2018-Feb-23 14:29N 51°56' E 003°45'0 0.0
2018-Feb-23 13:56N 51°56' E 003°45'0 0.0
2018-Feb-23 13:29N 51°56' E 003°45'0 0.0
2018-Feb-23 12:59N 51°56' E 003°45'0 0.0
2018-Feb-23 12:29N 51°56' E 003°45'0 0.0
2018-Feb-23 11:59N 51°56' E 003°45'0 0.0
2018-Feb-23 11:26N 51°56' E 003°45'0 0.0
2018-Feb-23 10:56N 51°56' E 003°45'0 0.1
2018-Feb-23 10:29N 51°56' E 003°45'0 0.1
2018-Feb-23 09:56N 51°56' E 003°46'0 0.2
2018-Feb-23 09:29N 51°56' E 003°46'0 0.1
2018-Feb-23 08:59N 51°56' E 003°46'0 0.0
2018-Feb-23 08:26N 51°56' E 003°46'0 0.0
2018-Feb-23 07:59N 51°56' E 003°46'0 0.0
2018-Feb-23 07:29N 51°56' E 003°46'0 0.0
2018-Feb-23 06:59N 51°56' E 003°46'0 0.0
2018-Feb-23 06:26N 51°56' E 003°46'0 0.0
2018-Feb-23 05:59N 51°56' E 003°46'0 0.3
2018-Feb-23 05:29N 51°56' E 003°45'0 0.1
2018-Feb-23 04:59N 51°56' E 003°45'0 0.1
2018-Feb-23 04:23N 51°56' E 003°45'0 0.0
2018-Feb-23 03:53N 51°56' E 003°45'0 0.0
2018-Feb-23 03:26N 51°56' E 003°45'0 0.0
2018-Feb-23 02:56N 51°56' E 003°45'0 0.0
2018-Feb-23 02:29N 51°56' E 003°45'0 0.0
2018-Feb-23 01:59N 51°56' E 003°45'0 0.0
2018-Feb-23 01:26N 51°56' E 003°45'0 0.0
2018-Feb-23 00:56N 51°56' E 003°45'0 0.0
2018-Feb-23 00:26N 51°56' E 003°45'0 0.0
2018-Feb-22 23:59N 51°56' E 003°45'0 0.0
2018-Feb-22 23:29N 51°56' E 003°45'0 0.0
2018-Feb-22 22:59N 51°56' E 003°45'0 0.0
2018-Feb-22 22:23N 51°56' E 003°45'0 0.0
2018-Feb-22 21:59N 51°56' E 003°45'0 0.0
2018-Feb-22 21:29N 51°56' E 003°45'0 0.2
2018-Feb-22 20:53N 51°56' E 003°46'0 0.1
2018-Feb-22 20:20N 51°56' E 003°46'0 0.0
2018-Feb-22 19:59N 51°56' E 003°46'0 0.0
2018-Feb-22 19:29N 51°56' E 003°46'0 0.0
2018-Feb-22 18:56N 51°56' E 003°46'0 0.0
2018-Feb-22 18:29N 51°56' E 003°46'0 0.0
2018-Feb-22 17:59N 51°56' E 003°46'0 0.2
2018-Feb-22 17:29N 51°56' E 003°46'0 0.2
2018-Feb-22 16:56N 51°56' E 003°45'0 0.1
2018-Feb-22 16:29N 51°56' E 003°45'0 0.0
2018-Feb-22 15:59N 51°56' E 003°45'0 0.0
2018-Feb-22 15:26N 51°56' E 003°45'0 0.0
2018-Feb-22 14:59N 51°56' E 003°45'0 0.0
2018-Feb-22 14:29N 51°56' E 003°45'0 0.0
2018-Feb-22 13:56N 51°56' E 003°45'0 0.0
2018-Feb-22 13:29N 51°56' E 003°46'0 0.0
2018-Feb-22 12:56N 51°56' E 003°45'0 0.0
2018-Feb-22 12:23N 51°56' E 003°45'0 0.0
2018-Feb-22 11:56N 51°56' E 003°46'0 0.0
2018-Feb-22 11:29N 51°56' E 003°46'0 0.0
2018-Feb-22 10:59N 51°56' E 003°45'0 0.0
2018-Feb-22 10:23N 51°56' E 003°45'0 0.1
2018-Feb-22 09:53N 51°56' E 003°45'0 0.0
2018-Feb-22 09:26N 51°56' E 003°45'0 0.2
2018-Feb-22 08:59N 51°56' E 003°46'0 0.1
2018-Feb-22 08:29N 51°56' E 003°46'0 0.0
2018-Feb-22 07:53N 51°56' E 003°46'0 0.0
2018-Feb-22 07:17N 51°56' E 003°46'0 0.0
2018-Feb-22 06:05N 51°56' E 003°46'0 0.0
2018-Feb-22 05:26N 51°56' E 003°46'0 0.2
2018-Feb-22 04:59N 51°56' E 003°46'0 0.2
2018-Feb-22 04:26N 51°56' E 003°45'0 0.1
2018-Feb-22 03:59N 51°56' E 003°45'0 0.0
2018-Feb-22 03:29N 51°56' E 003°45'0 0.0
2018-Feb-22 02:53N 51°56' E 003°45'0 0.0
2018-Feb-22 02:29N 51°56' E 003°45'0 0.0
2018-Feb-22 01:56N 51°56' E 003°45'0 0.0
2018-Feb-22 01:29N 51°56' E 003°45'0 0.0
2018-Feb-22 00:59N 51°56' E 003°45'0 0.0
2018-Feb-22 00:29N 51°56' E 003°45'0 0.0
2018-Feb-21 23:59N 51°56' E 003°45'0 0.0
2018-Feb-21 23:23N 51°56' E 003°45'0 0.0
2018-Feb-21 22:59N 51°56' E 003°45'0 0.0
2018-Feb-21 22:20N 51°56' E 003°45'0 0.0
2018-Feb-21 21:56N 51°56' E 003°45'0 0.0
2018-Feb-21 21:23N 51°56' E 003°45'0 0.0
2018-Feb-21 20:59N 51°56' E 003°45'0 0.2
2018-Feb-21 19:56N 51°56' E 003°46'0 0.1
2018-Feb-21 19:25N 51°56' E 003°46'0 0.0
2018-Feb-21 18:44N 51°56' E 003°46'0 0.0
2018-Feb-21 17:29N 51°56' E 003°46'0 0.0
2018-Feb-21 16:59N 51°56' E 003°46'0 0.0
2018-Feb-21 16:26N 51°56' E 003°46'0 0.3
2018-Feb-21 15:58N 51°56' E 003°46'0 0.1
2018-Feb-21 15:02N 51°56' E 003°45'0 0.1
2018-Feb-21 14:41N 51°56' E 003°45'0 0.0
2018-Feb-21 14:29N 51°56' E 003°45'0 0.0
2018-Feb-21 13:53N 51°56' E 003°45'0 0.0
2018-Feb-21 13:25N 51°56' E 003°45'0 0.0
2018-Feb-21 12:56N 51°56' E 003°46'0 0.0
2018-Feb-21 12:22N 51°56' E 003°46'0 0.0
2018-Feb-21 11:59N 51°56' E 003°46'0 0.0
2018-Feb-21 11:17N 51°56' E 003°46'0 0.0
2018-Feb-21 10:50N 51°56' E 003°46'0 0.0
2018-Feb-21 10:23N 51°56' E 003°46'0 0.0
2018-Feb-21 09:55N 51°56' E 003°46'0 0.0
2018-Feb-21 09:29N 51°56' E 003°46'0 0.2
2018-Feb-21 08:50N 51°56' E 003°46'0 0.1
2018-Feb-21 08:23N 51°56' E 003°46'0 0.1
2018-Feb-21 07:58N 51°56' E 003°46'0 0.0
2018-Feb-21 07:01N 51°56' E 003°46'0 0.8
2018-Feb-21 07:00N 51°56' E 003°46'2 3.2
2018-Feb-21 06:31N 51°58' E 003°47'2 4.4
2018-Feb-21 06:00N 51°60' E 003°48'5 9.3
2018-Feb-21 05:31N 52°03' E 003°54'5 9.4
2018-Feb-21 05:00N 52°00' E 004°01'510.6
2018-Feb-21 04:30N 51°58' E 004°08'510.5
2018-Feb-21 04:00N 51°55' E 004°15'4 8.1
2018-Feb-21 03:30N 51°54' E 004°21'0 0.4
2018-Feb-21 02:58N 51°54' E 004°22'0 0.0
2018-Feb-21 02:25N 51°54' E 004°22'0 0.0
2018-Feb-21 01:58N 51°54' E 004°22'0 0.0
2018-Feb-21 01:30N 51°54' E 004°22'0 0.0
2018-Feb-21 01:00N 51°54' E 004°22'0 0.0
2018-Feb-21 00:28N 51°54' E 004°22'0 0.0
2018-Feb-21 00:00N 51°54' E 004°22'0 0.0
2018-Feb-20 23:30N 51°54' E 004°22'0 0.0
2018-Feb-20 22:57N 51°54' E 004°22'0 0.0
2018-Feb-20 22:30N 51°54' E 004°22'0 0.0
2018-Feb-20 22:00N 51°54' E 004°22'0 0.0
2018-Feb-20 21:31N 51°54' E 004°22'0 0.0
2018-Feb-20 21:00N 51°54' E 004°22'0 0.0
2018-Feb-20 20:27N 51°54' E 004°22'0 0.0
2018-Feb-20 19:58N 51°54' E 004°22'0 0.0
2018-Feb-20 19:30N 51°54' E 004°22'0 0.0
2018-Feb-20 18:54N 51°54' E 004°22'0 0.0
2018-Feb-20 18:31N 51°54' E 004°22'0 0.0
2018-Feb-20 18:00N 51°54' E 004°22'0 0.0
2018-Feb-20 17:30N 51°54' E 004°22'0 0.0
2018-Feb-20 16:58N 51°54' E 004°22'0 0.0
2018-Feb-20 16:31N 51°54' E 004°22'0 0.0
2018-Feb-20 16:00N 51°54' E 004°22'0 0.0
2018-Feb-20 15:27N 51°54' E 004°22'0 0.0
2018-Feb-20 14:58N 51°54' E 004°22'0 0.0
2018-Feb-20 14:31N 51°54' E 004°22'0 0.0
2018-Feb-20 14:00N 51°54' E 004°22'0 0.0
2018-Feb-20 13:30N 51°54' E 004°22'0 0.0
2018-Feb-20 13:00N 51°54' E 004°22'0 0.0
2018-Feb-20 12:27N 51°54' E 004°22'0 0.0
2018-Feb-20 12:00N 51°54' E 004°22'0 0.0
2018-Feb-20 11:30N 51°54' E 004°22'0 0.0
2018-Feb-20 10:54N 51°54' E 004°22'0 0.0
2018-Feb-20 10:31N 51°54' E 004°22'0 0.0
2018-Feb-20 10:00N 51°54' E 004°22'0 0.0
2018-Feb-20 09:30N 51°54' E 004°22'0 0.0
2018-Feb-20 08:57N 51°54' E 004°22'0 0.0
2018-Feb-20 08:30N 51°54' E 004°22'0 0.0
2018-Feb-20 08:00N 51°54' E 004°22'0 0.0
2018-Feb-20 07:27N 51°54' E 004°22'0 0.0
2018-Feb-20 07:00N 51°54' E 004°22'0 0.0
2018-Feb-20 06:30N 51°54' E 004°22'0 0.0
2018-Feb-20 06:00N 51°54' E 004°22'0 0.0
2018-Feb-20 05:30N 51°54' E 004°22'0 0.0
2018-Feb-20 05:00N 51°54' E 004°22'0 0.0
2018-Feb-20 04:30N 51°54' E 004°22'0 0.0
2018-Feb-20 04:00N 51°54' E 004°22'0 0.0
2018-Feb-20 03:30N 51°54' E 004°22'0 0.0
2018-Feb-20 03:00N 51°54' E 004°22'0 0.0
2018-Feb-20 02:30N 51°54' E 004°22'0 0.0
2018-Feb-20 02:00N 51°54' E 004°22'0 0.0
2018-Feb-20 01:30N 51°54' E 004°22'0 0.0
2018-Feb-20 01:00N 51°54' E 004°22'0 0.0
2018-Feb-20 00:30N 51°54' E 004°22'0 0.0
2018-Feb-20 00:00N 51°54' E 004°22'0 0.0
2018-Feb-19 23:30N 51°54' E 004°22'0 0.0
2018-Feb-19 23:00N 51°54' E 004°22'0 0.0
2018-Feb-19 22:30N 51°54' E 004°22'0 0.1
2018-Feb-19 22:01N 51°54' E 004°22'2 4.6
2018-Feb-19 21:31N 51°53' E 004°18'1 1.7
2018-Feb-19 21:00N 51°54' E 004°17'0 0.0
2018-Feb-19 20:27N 51°54' E 004°17'0 0.0
2018-Feb-19 19:57N 51°54' E 004°17'0 0.0
2018-Feb-19 19:30N 51°54' E 004°17'0 0.0
2018-Feb-19 19:00N 51°54' E 004°17'0 0.0
2018-Feb-19 18:30N 51°54' E 004°17'0 0.0
2018-Feb-19 18:00N 51°54' E 004°17'0 0.0
2018-Feb-19 17:27N 51°54' E 004°17'0 0.0
2018-Feb-19 17:00N 51°54' E 004°17'0 0.0
2018-Feb-19 16:30N 51°54' E 004°17'0 0.0
2018-Feb-19 15:57N 51°54' E 004°17'0 0.0
2018-Feb-19 15:30N 51°54' E 004°17'0 0.0
2018-Feb-19 15:00N 51°54' E 004°17'0 0.0
2018-Feb-19 14:30N 51°54' E 004°17'0 0.0
2018-Feb-19 13:57N 51°54' E 004°17'0 0.0
2018-Feb-19 13:18N 51°54' E 004°17'0 0.0
2018-Feb-19 13:00N 51°54' E 004°17'0 0.0
2018-Feb-19 12:30N 51°54' E 004°17'0 0.0
2018-Feb-19 11:57N 51°54' E 004°17'0 0.0
2018-Feb-19 11:30N 51°54' E 004°17'0 0.0
2018-Feb-19 10:57N 51°54' E 004°17'0 0.0
2018-Feb-19 10:30N 51°54' E 004°17'0 0.0
2018-Feb-19 10:00N 51°54' E 004°17'0 0.0
2018-Feb-19 09:30N 51°54' E 004°17'0 0.0
2018-Feb-19 08:54N 51°54' E 004°17'0 0.0
2018-Feb-19 08:24N 51°54' E 004°17'0 0.0
2018-Feb-19 07:57N 51°54' E 004°17'0 0.0
2018-Feb-19 07:24N 51°54' E 004°17'0 0.0
2018-Feb-19 06:57N 51°54' E 004°17'0 0.0
2018-Feb-19 06:24N 51°54' E 004°17'0 0.0
2018-Feb-19 05:48N 51°54' E 004°17'0 0.0
2018-Feb-19 05:30N 51°54' E 004°17'0 0.0
2018-Feb-19 05:00N 51°54' E 004°17'0 0.0
2018-Feb-19 04:12N 51°54' E 004°17'0 0.0
2018-Feb-19 04:00N 51°54' E 004°17'0 0.0
2018-Feb-19 03:27N 51°54' E 004°17'0 0.0
2018-Feb-19 03:00N 51°54' E 004°17'0 0.0
2018-Feb-19 02:30N 51°54' E 004°17'0 0.0
2018-Feb-19 02:00N 51°54' E 004°17'0 0.0
2018-Feb-19 01:30N 51°54' E 004°17'0 0.0
2018-Feb-19 01:00N 51°54' E 004°17'0 0.0
2018-Feb-19 00:09N 51°54' E 004°17'0 0.0
2018-Feb-18 23:48N 51°54' E 004°17'0 0.0
2018-Feb-18 23:30N 51°54' E 004°17'0 0.0
2018-Feb-18 23:00N 51°54' E 004°17'0 0.0
2018-Feb-18 22:30N 51°54' E 004°17'0 0.0
2018-Feb-18 22:00N 51°54' E 004°17'0 0.0
2018-Feb-18 21:27N 51°54' E 004°17'0 0.0
2018-Feb-18 21:00N 51°54' E 004°17'0 0.0
2018-Feb-18 20:03N 51°54' E 004°17'0 0.0
2018-Feb-18 19:33N 51°54' E 004°17'0 0.0
2018-Feb-18 19:27N 51°54' E 004°17'0 0.0
2018-Feb-18 18:54N 51°54' E 004°17'0 0.0
2018-Feb-18 18:15N 51°54' E 004°17'0 0.0
2018-Feb-18 17:54N 51°54' E 004°17'0 0.0
2018-Feb-18 16:45N 51°54' E 004°17'0 0.0
2018-Feb-18 16:27N 51°54' E 004°17'0 0.0
2018-Feb-18 16:00N 51°54' E 004°17'0 0.0
2018-Feb-18 15:30N 51°54' E 004°17'0 0.0
2018-Feb-18 15:00N 51°54' E 004°17'0 0.0
2018-Feb-18 14:30N 51°54' E 004°17'0 0.0
2018-Feb-18 13:57N 51°54' E 004°17'0 0.4
2018-Feb-18 13:30N 51°53' E 004°17'0 0.3
2018-Feb-18 12:53N 51°53' E 004°17'0 0.0
2018-Feb-18 12:29N 51°53' E 004°17'0 0.0
2018-Feb-18 11:47N 51°53' E 004°17'0 0.0
2018-Feb-18 11:29N 51°53' E 004°17'0 0.0
2018-Feb-18 10:56N 51°53' E 004°17'0 0.0
2018-Feb-18 10:29N 51°53' E 004°17'0 0.0
2018-Feb-18 09:47N 51°53' E 004°17'0 0.0
2018-Feb-18 09:26N 51°53' E 004°17'0 0.0
2018-Feb-18 08:55N 51°53' E 004°17'0 0.0
2018-Feb-18 08:29N 51°53' E 004°17'0 0.0
2018-Feb-18 07:53N 51°53' E 004°17'0 0.0
2018-Feb-18 07:20N 51°53' E 004°17'0 0.0
2018-Feb-18 06:50N 51°53' E 004°17'0 0.0
2018-Feb-18 06:28N 51°53' E 004°17'0 0.0
2018-Feb-18 05:55N 51°53' E 004°17'0 0.0
2018-Feb-18 05:29N 51°53' E 004°17'0 0.0
2018-Feb-18 04:55N 51°53' E 004°17'0 0.0
2018-Feb-18 04:23N 51°53' E 004°17'0 0.0
2018-Feb-18 03:58N 51°53' E 004°17'0 0.0
2018-Feb-18 03:29N 51°53' E 004°17'0 0.0
2018-Feb-18 02:50N 51°53' E 004°17'0 0.0
2018-Feb-18 02:29N 51°53' E 004°17'0 0.0
2018-Feb-18 01:59N 51°53' E 004°17'0 0.0
2018-Feb-18 01:28N 51°53' E 004°17'0 0.0
2018-Feb-18 00:55N 51°53' E 004°17'0 0.0
2018-Feb-18 00:29N 51°53' E 004°17'0 0.0
2018-Feb-17 23:58N 51°53' E 004°17'0 0.0
2018-Feb-17 23:28N 51°53' E 004°17'0 0.0
2018-Feb-17 22:58N 51°53' E 004°17'0 0.0
2018-Feb-17 22:20N 51°53' E 004°17'0 0.0
2018-Feb-17 21:58N 51°53' E 004°17'0 0.0
2018-Feb-17 21:28N 51°53' E 004°17'0 0.0
2018-Feb-17 20:52N 51°53' E 004°17'0 0.0
2018-Feb-17 20:28N 51°53' E 004°17'0 0.0
2018-Feb-17 19:49N 51°53' E 004°17'0 0.0
2018-Feb-17 19:25N 51°53' E 004°17'0 0.0
2018-Feb-17 18:59N 51°53' E 004°17'0 0.0
2018-Feb-17 18:20N 51°53' E 004°17'0 0.0
2018-Feb-17 17:55N 51°53' E 004°17'0 0.0
2018-Feb-17 17:22N 51°53' E 004°17'0 0.0
2018-Feb-17 16:58N 51°53' E 004°17'0 0.0
2018-Feb-17 16:22N 51°53' E 004°17'0 0.0
2018-Feb-17 15:55N 51°53' E 004°17'0 0.0
2018-Feb-17 15:29N 51°53' E 004°17'0 0.0
2018-Feb-17 14:58N 51°53' E 004°17'0 0.0
2018-Feb-17 14:25N 51°53' E 004°17'0 0.0
2018-Feb-17 13:55N 51°53' E 004°17'0 0.0
2018-Feb-17 13:28N 51°53' E 004°17'0 0.0
2018-Feb-17 12:55N 51°53' E 004°17'0 0.0
2018-Feb-17 12:28N 51°53' E 004°17'0 0.0
2018-Feb-17 11:55N 51°53' E 004°17'0 0.0
2018-Feb-17 11:28N 51°53' E 004°17'0 0.0
2018-Feb-17 10:55N 51°53' E 004°17'0 0.0
2018-Feb-17 10:25N 51°53' E 004°17'0 0.0
2018-Feb-17 09:55N 51°53' E 004°17'0 0.0
2018-Feb-17 09:28N 51°53' E 004°17'0 0.0
2018-Feb-17 08:55N 51°53' E 004°17'0 0.0
2018-Feb-17 08:28N 51°53' E 004°17'0 0.0
2018-Feb-17 07:55N 51°53' E 004°17'0 0.0
2018-Feb-17 07:28N 51°53' E 004°17'0 0.0
2018-Feb-17 06:58N 51°53' E 004°17'0 0.0
2018-Feb-17 06:25N 51°53' E 004°17'0 0.0
2018-Feb-17 05:49N 51°53' E 004°17'0 0.0
2018-Feb-17 05:28N 51°53' E 004°17'0 0.0
2018-Feb-17 04:52N 51°53' E 004°17'0 0.0
2018-Feb-17 04:22N 51°53' E 004°17'0 0.0
2018-Feb-17 03:58N 51°53' E 004°17'0 0.0
2018-Feb-17 03:28N 51°53' E 004°17'0 0.0
2018-Feb-17 02:58N 51°53' E 004°17'0 0.0
2018-Feb-17 02:10N 51°53' E 004°17'0 0.0
2018-Feb-17 01:52N 51°53' E 004°17'0 0.0
2018-Feb-17 01:25N 51°53' E 004°17'0 0.0
2018-Feb-17 00:55N 51°53' E 004°17'0 0.0
2018-Feb-17 00:25N 51°53' E 004°17'0 0.0
2018-Feb-16 23:49N 51°53' E 004°17'0 0.0
2018-Feb-16 23:28N 51°53' E 004°17'0 0.0
2018-Feb-16 22:58N 51°53' E 004°17'0 0.0
2018-Feb-16 22:25N 51°53' E 004°17'0 0.0
2018-Feb-16 21:58N 51°53' E 004°17'0 0.0
2018-Feb-16 21:28N 51°53' E 004°17'0 0.0
2018-Feb-16 21:01N 51°53' E 004°17'1 1.3
2018-Feb-16 20:30N 51°53' E 004°18'2 4.5
2018-Feb-16 20:01N 51°55' E 004°15'4 7.5
2018-Feb-16 19:30N 51°57' E 004°10'4 8.5
2018-Feb-16 19:00N 51°59' E 004°04'510.7
2018-Feb-16 18:30N 51°60' E 003°56'4 8.9
2018-Feb-16 18:01N 51°60' E 003°49'4 8.1
2018-Feb-16 17:30N 51°59' E 003°42'812.7
2018-Feb-16 16:54N 51°56' E 003°31'613.8
2018-Feb-16 16:28N 51°55' E 003°21'813.9
2018-Feb-16 15:54N 51°53' E 003°09'714.1
2018-Feb-16 15:25N 51°51' E 002°58'814.4
2018-Feb-16 14:53N 51°49' E 002°46'614.4
2018-Feb-16 14:28N 51°46' E 002°38'715.1
2018-Feb-16 14:00N 51°40' E 002°30'715.0
2018-Feb-16 13:31N 51°35' E 002°22'714.7
2018-Feb-16 13:00N 51°30' E 002°14'714.0
2018-Feb-16 12:30N 51°24' E 002°08'713.9
2018-Feb-16 12:01N 51°17' E 002°07'714.1
2018-Feb-16 11:31N 51°11' E 001°59'714.2
2018-Feb-16 11:00N 51°08' E 001°50'714.1
2018-Feb-16 10:31N 51°03' E 001°41'713.1
2018-Feb-16 10:00N 50°59' E 001°33'612.2
2018-Feb-16 09:30N 50°54' E 001°27'5010.9
2018-Feb-16 04:53N 50°24' E 000°24'611.7
2018-Feb-16 04:20N 50°22' E 000°14'411.4
2018-Feb-16 03:57N 50°21' E 000°08'511.6
2018-Feb-16 03:28N 50°19' W 000°00'611.5
2018-Feb-16 02:59N 50°17' W 000°09'3011.3
2018-Feb-16 00:17N 50°09' W 000°55'312.2
2018-Feb-16 00:00N 50°08' W 000°60'612.7
2018-Feb-15 23:30N 50°06' W 001°09'713.5
2018-Feb-15 23:00N 50°04' W 001°19'714.3
2018-Feb-15 22:30N 50°02' W 001°30'715.0
2018-Feb-15 22:01N 49°60' W 001°41'815.6
2018-Feb-15 21:30N 49°58' W 001°53'815.9
2018-Feb-15 21:00N 49°56' W 002°05'3015.7
2018-Feb-15 19:05N 49°49' W 002°50'10813.6
2018-Feb-15 11:07N 48°56' W 005°15'1211.4
2018-Feb-15 10:03N 48°49' W 005°30'211.4
2018-Feb-15 09:52N 48°48' W 005°33'510.7
2018-Feb-15 09:23N 48°44' W 005°39'711.2
2018-Feb-15 08:49N 48°39' W 005°43'511.3
2018-Feb-15 08:22N 48°34' W 005°47'  
Track history (hours):
 
Tides and Currents Weather Stations Pressure Air Temp Water Temp Dewpoint Dewpoint Depression Visibility Wind Speed Wind Dir Waves Ship Positions

Celsius Mumbai

Last reported at 2018-Feb-25 07:59 UTC. Time now 2018-Feb-25 08:19 UTC.
Position N 51°54' E 004°22'.

Length 144 m; draft 8.4 m.

Type: Ship (hazmat cat B). MMSI: 538005324.

Date/timePositionNaut miles runAvg speedWind from/ knotsBaromVisibWave heightAir tempDewpointWater temp
2018-Feb-25 07:59N 51°54' E 004°22'0 0.0
2018-Feb-25 07:29N 51°54' E 004°22'0 0.0
2018-Feb-25 07:00N 51°54' E 004°22'0 0.0
2018-Feb-25 06:27N 51°54' E 004°22'0 0.0
2018-Feb-25 05:59N 51°54' E 004°22'0 0.0
2018-Feb-25 05:26N 51°54' E 004°22'0 0.0
2018-Feb-25 04:59N 51°54' E 004°22'0 0.0
2018-Feb-25 04:29N 51°54' E 004°22'0 0.0
2018-Feb-25 03:59N 51°54' E 004°22'0 0.0
2018-Feb-25 03:29N 51°54' E 004°22'0 0.0
2018-Feb-25 02:59N 51°54' E 004°22'0 0.0
2018-Feb-25 02:29N 51°54' E 004°22'0 0.0
2018-Feb-25 01:59N 51°54' E 004°22'0 0.0
2018-Feb-25 01:30N 51°54' E 004°22'0 0.0
2018-Feb-25 00:59N 51°54' E 004°22'0 0.0
2018-Feb-25 00:29N 51°54' E 004°22'0 0.0
2018-Feb-24 23:53N 51°54' E 004°22'0 0.0
2018-Feb-24 23:29N 51°54' E 004°22'0 0.0
2018-Feb-24 22:59N 51°54' E 004°22'0 0.0
2018-Feb-24 22:29N 51°54' E 004°22'0 0.0
2018-Feb-24 21:59N 51°54' E 004°22'0 0.0
2018-Feb-24 21:29N 51°54' E 004°22'0 0.0
2018-Feb-24 20:59N 51°54' E 004°22'0 0.0
2018-Feb-24 20:17N 51°54' E 004°22'0 0.0
2018-Feb-24 19:56N 51°54' E 004°22'0 0.0
2018-Feb-24 19:11N 51°54' E 004°22'0 0.0
2018-Feb-24 18:59N 51°54' E 004°22'0 0.0
2018-Feb-24 18:29N 51°54' E 004°22'0 0.0
2018-Feb-24 17:59N 51°54' E 004°22'0 0.0
2018-Feb-24 17:29N 51°54' E 004°22'0 0.0
2018-Feb-24 16:59N 51°54' E 004°22'0 0.0
2018-Feb-24 16:29N 51°54' E 004°22'0 0.0
2018-Feb-24 15:59N 51°54' E 004°22'0 0.0
2018-Feb-24 15:29N 51°54' E 004°22'0 0.0
2018-Feb-24 14:50N 51°54' E 004°22'0 0.0
2018-Feb-24 14:26N 51°54' E 004°22'0 0.0
2018-Feb-24 13:59N 51°54' E 004°22'0 0.0
2018-Feb-24 13:29N 51°54' E 004°22'0 0.2
2018-Feb-24 13:00N 51°54' E 004°22'3 5.1
2018-Feb-24 12:31N 51°54' E 004°17'4 7.2
2018-Feb-24 12:00N 51°56' E 004°13'4 7.1
2018-Feb-24 11:31N 51°58' E 004°08'4 8.2
2018-Feb-24 11:00N 51°60' E 004°02'5 9.8
2018-Feb-24 10:31N 51°59' E 003°54'510.4
2018-Feb-24 10:00N 51°58' E 003°46'2 4.4
2018-Feb-24 09:30N 51°56' E 003°46'0 0.1
2018-Feb-24 08:59N 51°56' E 003°46'0 0.0
2018-Feb-24 08:29N 51°56' E 003°46'0 0.0
2018-Feb-24 07:35N 51°56' E 003°46'0 0.2
2018-Feb-24 07:26N 51°56' E 003°46'0 0.2
2018-Feb-24 06:59N 51°56' E 003°45'0 0.1
2018-Feb-24 06:23N 51°56' E 003°45'0 0.1
2018-Feb-24 05:59N 51°56' E 003°45'0 0.0
2018-Feb-24 05:23N 51°56' E 003°45'0 0.0
2018-Feb-24 04:56N 51°56' E 003°45'0 0.1
2018-Feb-24 04:26N 51°56' E 003°45'0 0.0
2018-Feb-24 03:59N 51°56' E 003°45'0 0.0
2018-Feb-24 03:29N 51°56' E 003°45'0 0.0
2018-Feb-24 02:53N 51°56' E 003°45'0 0.0
2018-Feb-24 02:29N 51°56' E 003°45'0 0.0
2018-Feb-24 01:59N 51°56' E 003°45'0 0.0
2018-Feb-24 01:29N 51°56' E 003°45'0 0.0
2018-Feb-24 00:59N 51°56' E 003°45'0 0.0
2018-Feb-24 00:29N 51°56' E 003°45'0 0.0
2018-Feb-23 23:41N 51°56' E 003°45'0 0.0
2018-Feb-23 23:26N 51°56' E 003°45'0 0.0
2018-Feb-23 22:50N 51°56' E 003°45'0 0.0
2018-Feb-23 22:20N 51°56' E 003°45'0 0.1
2018-Feb-23 21:59N 51°56' E 003°45'0 0.3
2018-Feb-23 21:29N 51°56' E 003°46'0 0.1
2018-Feb-23 20:59N 51°56' E 003°46'0 0.0
2018-Feb-23 20:29N 51°56' E 003°46'0 0.0
2018-Feb-23 19:50N 51°56' E 003°46'0 0.0
2018-Feb-23 19:26N 51°56' E 003°46'0 0.0
2018-Feb-23 18:59N 51°56' E 003°46'0 0.2
2018-Feb-23 18:29N 51°56' E 003°46'0 0.2
2018-Feb-23 17:56N 51°56' E 003°45'0 0.1
2018-Feb-23 17:26N 51°56' E 003°45'0 0.0
2018-Feb-23 16:53N 51°56' E 003°45'0 0.0
2018-Feb-23 16:20N 51°56' E 003°45'0 0.0
2018-Feb-23 15:47N 51°56' E 003°45'0 0.0
2018-Feb-23 15:20N 51°56' E 003°45'0 0.0
2018-Feb-23 14:56N 51°56' E 003°45'0 0.0
2018-Feb-23 14:29N 51°56' E 003°45'0 0.0
2018-Feb-23 13:56N 51°56' E 003°45'0 0.0
2018-Feb-23 13:29N 51°56' E 003°45'0 0.0
2018-Feb-23 12:59N 51°56' E 003°45'0 0.0
2018-Feb-23 12:29N 51°56' E 003°45'0 0.0
2018-Feb-23 11:59N 51°56' E 003°45'0 0.0
2018-Feb-23 11:26N 51°56' E 003°45'0 0.0
2018-Feb-23 10:56N 51°56' E 003°45'0 0.1
2018-Feb-23 10:29N 51°56' E 003°45'0 0.1
2018-Feb-23 09:56N 51°56' E 003°46'0 0.2
2018-Feb-23 09:29N 51°56' E 003°46'0 0.1
2018-Feb-23 08:59N 51°56' E 003°46'0 0.0
2018-Feb-23 08:26N 51°56' E 003°46'0 0.0
2018-Feb-23 07:59N 51°56' E 003°46'0 0.0
2018-Feb-23 07:29N 51°56' E 003°46'0 0.0
2018-Feb-23 06:59N 51°56' E 003°46'0 0.0
2018-Feb-23 06:26N 51°56' E 003°46'0 0.0
2018-Feb-23 05:59N 51°56' E 003°46'0 0.3
2018-Feb-23 05:29N 51°56' E 003°45'0 0.1
2018-Feb-23 04:59N 51°56' E 003°45'0 0.1
2018-Feb-23 04:23N 51°56' E 003°45'0 0.0
2018-Feb-23 03:53N 51°56' E 003°45'0 0.0
2018-Feb-23 03:26N 51°56' E 003°45'0 0.0
2018-Feb-23 02:56N 51°56' E 003°45'0 0.0
2018-Feb-23 02:29N 51°56' E 003°45'0 0.0
2018-Feb-23 01:59N 51°56' E 003°45'0 0.0
2018-Feb-23 01:26N 51°56' E 003°45'0 0.0
2018-Feb-23 00:56N 51°56' E 003°45'0 0.0
2018-Feb-23 00:26N 51°56' E 003°45'0 0.0
2018-Feb-22 23:59N 51°56' E 003°45'0 0.0
2018-Feb-22 23:29N 51°56' E 003°45'0 0.0
2018-Feb-22 22:59N 51°56' E 003°45'0 0.0
2018-Feb-22 22:23N 51°56' E 003°45'0 0.0
2018-Feb-22 21:59N 51°56' E 003°45'0 0.0
2018-Feb-22 21:29N 51°56' E 003°45'0 0.2
2018-Feb-22 20:53N 51°56' E 003°46'0 0.1
2018-Feb-22 20:20N 51°56' E 003°46'0 0.0
2018-Feb-22 19:59N 51°56' E 003°46'0 0.0
2018-Feb-22 19:29N 51°56' E 003°46'0 0.0
2018-Feb-22 18:56N 51°56' E 003°46'0 0.0
2018-Feb-22 18:29N 51°56' E 003°46'0 0.0
2018-Feb-22 17:59N 51°56' E 003°46'0 0.2
2018-Feb-22 17:29N 51°56' E 003°46'0 0.2
2018-Feb-22 16:56N 51°56' E 003°45'0 0.1
2018-Feb-22 16:29N 51°56' E 003°45'0 0.0
2018-Feb-22 15:59N 51°56' E 003°45'0 0.0
2018-Feb-22 15:26N 51°56' E 003°45'0 0.0
2018-Feb-22 14:59N 51°56' E 003°45'0 0.0
2018-Feb-22 14:29N 51°56' E 003°45'0 0.0
2018-Feb-22 13:56N 51°56' E 003°45'0 0.0
2018-Feb-22 13:29N 51°56' E 003°46'0 0.0
2018-Feb-22 12:56N 51°56' E 003°45'0 0.0
2018-Feb-22 12:23N 51°56' E 003°45'0 0.0
2018-Feb-22 11:56N 51°56' E 003°46'0 0.0
2018-Feb-22 11:29N 51°56' E 003°46'0 0.0
2018-Feb-22 10:59N 51°56' E 003°45'0 0.0
2018-Feb-22 10:23N 51°56' E 003°45'0 0.1
2018-Feb-22 09:53N 51°56' E 003°45'0 0.0
2018-Feb-22 09:26N 51°56' E 003°45'0 0.2
2018-Feb-22 08:59N 51°56' E 003°46'0 0.1
2018-Feb-22 08:29N 51°56' E 003°46'0 0.0
2018-Feb-22 07:53N 51°56' E 003°46'0 0.0
2018-Feb-22 07:17N 51°56' E 003°46'0 0.0
2018-Feb-22 06:05N 51°56' E 003°46'0 0.0
2018-Feb-22 05:26N 51°56' E 003°46'0 0.2
2018-Feb-22 04:59N 51°56' E 003°46'0 0.2
2018-Feb-22 04:26N 51°56' E 003°45'0 0.1
2018-Feb-22 03:59N 51°56' E 003°45'0 0.0
2018-Feb-22 03:29N 51°56' E 003°45'0 0.0
2018-Feb-22 02:53N 51°56' E 003°45'0 0.0
2018-Feb-22 02:29N 51°56' E 003°45'0 0.0
2018-Feb-22 01:56N 51°56' E 003°45'0 0.0
2018-Feb-22 01:29N 51°56' E 003°45'0 0.0
2018-Feb-22 00:59N 51°56' E 003°45'0 0.0
2018-Feb-22 00:29N 51°56' E 003°45'0 0.0
2018-Feb-21 23:59N 51°56' E 003°45'0 0.0
2018-Feb-21 23:23N 51°56' E 003°45'0 0.0
2018-Feb-21 22:59N 51°56' E 003°45'0 0.0
2018-Feb-21 22:20N 51°56' E 003°45'0 0.0
2018-Feb-21 21:56N 51°56' E 003°45'0 0.0
2018-Feb-21 21:23N 51°56' E 003°45'0 0.0
2018-Feb-21 20:59N 51°56' E 003°45'0 0.2
2018-Feb-21 19:56N 51°56' E 003°46'0 0.1
2018-Feb-21 19:25N 51°56' E 003°46'0 0.0
2018-Feb-21 18:44N 51°56' E 003°46'0 0.0
2018-Feb-21 17:29N 51°56' E 003°46'0 0.0
2018-Feb-21 16:59N 51°56' E 003°46'0 0.0
2018-Feb-21 16:26N 51°56' E 003°46'0 0.3
2018-Feb-21 15:58N 51°56' E 003°46'0 0.1
2018-Feb-21 15:02N 51°56' E 003°45'0 0.1
2018-Feb-21 14:41N 51°56' E 003°45'0 0.0
2018-Feb-21 14:29N 51°56' E 003°45'0 0.0
2018-Feb-21 13:53N 51°56' E 003°45'0 0.0
2018-Feb-21 13:25N 51°56' E 003°45'0 0.0
2018-Feb-21 12:56N 51°56' E 003°46'0 0.0
2018-Feb-21 12:22N 51°56' E 003°46'0 0.0
2018-Feb-21 11:59N 51°56' E 003°46'0 0.0
2018-Feb-21 11:17N 51°56' E 003°46'0 0.0
2018-Feb-21 10:50N 51°56' E 003°46'0 0.0
2018-Feb-21 10:23N 51°56' E 003°46'0 0.0
2018-Feb-21 09:55N 51°56' E 003°46'0 0.0
2018-Feb-21 09:29N 51°56' E 003°46'0 0.2
2018-Feb-21 08:50N 51°56' E 003°46'0 0.1
2018-Feb-21 08:23N 51°56' E 003°46'0 0.1
2018-Feb-21 07:58N 51°56' E 003°46'0 0.0
2018-Feb-21 07:01N 51°56' E 003°46'0 0.8
2018-Feb-21 07:00N 51°56' E 003°46'2 3.2
2018-Feb-21 06:31N 51°58' E 003°47'2 4.4
2018-Feb-21 06:00N 51°60' E 003°48'5 9.3
2018-Feb-21 05:31N 52°03' E 003°54'5 9.4
2018-Feb-21 05:00N 52°00' E 004°01'510.6
2018-Feb-21 04:30N 51°58' E 004°08'510.5
2018-Feb-21 04:00N 51°55' E 004°15'4 8.1
2018-Feb-21 03:30N 51°54' E 004°21'0 0.4
2018-Feb-21 02:58N 51°54' E 004°22'0 0.0
2018-Feb-21 02:25N 51°54' E 004°22'0 0.0
2018-Feb-21 01:58N 51°54' E 004°22'0 0.0
2018-Feb-21 01:30N 51°54' E 004°22'0 0.0
2018-Feb-21 01:00N 51°54' E 004°22'0 0.0
2018-Feb-21 00:28N 51°54' E 004°22'0 0.0
2018-Feb-21 00:00N 51°54' E 004°22'0 0.0
2018-Feb-20 23:30N 51°54' E 004°22'0 0.0
2018-Feb-20 22:57N 51°54' E 004°22'0 0.0
2018-Feb-20 22:30N 51°54' E 004°22'0 0.0
2018-Feb-20 22:00N 51°54' E 004°22'0 0.0
2018-Feb-20 21:31N 51°54' E 004°22'0 0.0
2018-Feb-20 21:00N 51°54' E 004°22'0 0.0
2018-Feb-20 20:27N 51°54' E 004°22'0 0.0
2018-Feb-20 19:58N 51°54' E 004°22'0 0.0
2018-Feb-20 19:30N 51°54' E 004°22'0 0.0
2018-Feb-20 18:54N 51°54' E 004°22'0 0.0
2018-Feb-20 18:31N 51°54' E 004°22'0 0.0
2018-Feb-20 18:00N 51°54' E 004°22'0 0.0
2018-Feb-20 17:30N 51°54' E 004°22'0 0.0
2018-Feb-20 16:58N 51°54' E 004°22'0 0.0
2018-Feb-20 16:31N 51°54' E 004°22'0 0.0
2018-Feb-20 16:00N 51°54' E 004°22'0 0.0
2018-Feb-20 15:27N 51°54' E 004°22'0 0.0
2018-Feb-20 14:58N 51°54' E 004°22'0 0.0
2018-Feb-20 14:31N 51°54' E 004°22'0 0.0
2018-Feb-20 14:00N 51°54' E 004°22'0 0.0
2018-Feb-20 13:30N 51°54' E 004°22'0 0.0
2018-Feb-20 13:00N 51°54' E 004°22'0 0.0
2018-Feb-20 12:27N 51°54' E 004°22'0 0.0
2018-Feb-20 12:00N 51°54' E 004°22'0 0.0
2018-Feb-20 11:30N 51°54' E 004°22'0 0.0
2018-Feb-20 10:54N 51°54' E 004°22'0 0.0
2018-Feb-20 10:31N 51°54' E 004°22'0 0.0
2018-Feb-20 10:00N 51°54' E 004°22'0 0.0
2018-Feb-20 09:30N 51°54' E 004°22'0 0.0
2018-Feb-20 08:57N 51°54' E 004°22'0 0.0
2018-Feb-20 08:30N 51°54' E 004°22'0 0.0
2018-Feb-20 08:00N 51°54' E 004°22'0 0.0
2018-Feb-20 07:27N 51°54' E 004°22'0 0.0
2018-Feb-20 07:00N 51°54' E 004°22'0 0.0
2018-Feb-20 06:30N 51°54' E 004°22'0 0.0
2018-Feb-20 06:00N 51°54' E 004°22'0 0.0
2018-Feb-20 05:30N 51°54' E 004°22'0 0.0
2018-Feb-20 05:00N 51°54' E 004°22'0 0.0
2018-Feb-20 04:30N 51°54' E 004°22'0 0.0
2018-Feb-20 04:00N 51°54' E 004°22'0 0.0
2018-Feb-20 03:30N 51°54' E 004°22'0 0.0
2018-Feb-20 03:00N 51°54' E 004°22'0 0.0
2018-Feb-20 02:30N 51°54' E 004°22'0 0.0
2018-Feb-20 02:00N 51°54' E 004°22'0 0.0
2018-Feb-20 01:30N 51°54' E 004°22'0 0.0
2018-Feb-20 01:00N 51°54' E 004°22'0 0.0
2018-Feb-20 00:30N 51°54' E 004°22'0 0.0
2018-Feb-20 00:00N 51°54' E 004°22'0 0.0
2018-Feb-19 23:30N 51°54' E 004°22'0 0.0
2018-Feb-19 23:00N 51°54' E 004°22'0 0.0
2018-Feb-19 22:30N 51°54' E 004°22'0 0.1
2018-Feb-19 22:01N 51°54' E 004°22'2 4.6
2018-Feb-19 21:31N 51°53' E 004°18'1 1.7
2018-Feb-19 21:00N 51°54' E 004°17'0 0.0
2018-Feb-19 20:27N 51°54' E 004°17'0 0.0
2018-Feb-19 19:57N 51°54' E 004°17'0 0.0
2018-Feb-19 19:30N 51°54' E 004°17'0 0.0
2018-Feb-19 19:00N 51°54' E 004°17'0 0.0
2018-Feb-19 18:30N 51°54' E 004°17'0 0.0
2018-Feb-19 18:00N 51°54' E 004°17'0 0.0
2018-Feb-19 17:27N 51°54' E 004°17'0 0.0
2018-Feb-19 17:00N 51°54' E 004°17'0 0.0
2018-Feb-19 16:30N 51°54' E 004°17'0 0.0
2018-Feb-19 15:57N 51°54' E 004°17'0 0.0
2018-Feb-19 15:30N 51°54' E 004°17'0 0.0
2018-Feb-19 15:00N 51°54' E 004°17'0 0.0
2018-Feb-19 14:30N 51°54' E 004°17'0 0.0
2018-Feb-19 13:57N 51°54' E 004°17'0 0.0
2018-Feb-19 13:18N 51°54' E 004°17'0 0.0
2018-Feb-19 13:00N 51°54' E 004°17'0 0.0
2018-Feb-19 12:30N 51°54' E 004°17'0 0.0
2018-Feb-19 11:57N 51°54' E 004°17'0 0.0
2018-Feb-19 11:30N 51°54' E 004°17'0 0.0
2018-Feb-19 10:57N 51°54' E 004°17'0 0.0
2018-Feb-19 10:30N 51°54' E 004°17'0 0.0
2018-Feb-19 10:00N 51°54' E 004°17'0 0.0
2018-Feb-19 09:30N 51°54' E 004°17'0 0.0
2018-Feb-19 08:54N 51°54' E 004°17'0 0.0
2018-Feb-19 08:24N 51°54' E 004°17'0 0.0
2018-Feb-19 07:57N 51°54' E 004°17'0 0.0
2018-Feb-19 07:24N 51°54' E 004°17'0 0.0
2018-Feb-19 06:57N 51°54' E 004°17'0 0.0
2018-Feb-19 06:24N 51°54' E 004°17'0 0.0
2018-Feb-19 05:48N 51°54' E 004°17'0 0.0
2018-Feb-19 05:30N 51°54' E 004°17'0 0.0
2018-Feb-19 05:00N 51°54' E 004°17'0 0.0
2018-Feb-19 04:12N 51°54' E 004°17'0 0.0
2018-Feb-19 04:00N 51°54' E 004°17'0 0.0
2018-Feb-19 03:27N 51°54' E 004°17'0 0.0
2018-Feb-19 03:00N 51°54' E 004°17'0 0.0
2018-Feb-19 02:30N 51°54' E 004°17'0 0.0
2018-Feb-19 02:00N 51°54' E 004°17'0 0.0
2018-Feb-19 01:30N 51°54' E 004°17'0 0.0
2018-Feb-19 01:00N 51°54' E 004°17'0 0.0
2018-Feb-19 00:09N 51°54' E 004°17'0 0.0
2018-Feb-18 23:48N 51°54' E 004°17'0 0.0
2018-Feb-18 23:30N 51°54' E 004°17'0 0.0
2018-Feb-18 23:00N 51°54' E 004°17'0 0.0
2018-Feb-18 22:30N 51°54' E 004°17'0 0.0
2018-Feb-18 22:00N 51°54' E 004°17'0 0.0
2018-Feb-18 21:27N 51°54' E 004°17'0 0.0
2018-Feb-18 21:00N 51°54' E 004°17'0 0.0
2018-Feb-18 20:03N 51°54' E 004°17'0 0.0
2018-Feb-18 19:33N 51°54' E 004°17'0 0.0
2018-Feb-18 19:27N 51°54' E 004°17'0 0.0
2018-Feb-18 18:54N 51°54' E 004°17'0 0.0
2018-Feb-18 18:15N 51°54' E 004°17'0 0.0
2018-Feb-18 17:54N 51°54' E 004°17'0 0.0
2018-Feb-18 16:45N 51°54' E 004°17'0 0.0
2018-Feb-18 16:27N 51°54' E 004°17'0 0.0
2018-Feb-18 16:00N 51°54' E 004°17'0 0.0
2018-Feb-18 15:30N 51°54' E 004°17'0 0.0
2018-Feb-18 15:00N 51°54' E 004°17'0 0.0
2018-Feb-18 14:30N 51°54' E 004°17'0 0.0
2018-Feb-18 13:57N 51°54' E 004°17'0 0.4
2018-Feb-18 13:30N 51°53' E 004°17'0 0.3
2018-Feb-18 12:53N 51°53' E 004°17'0 0.0
2018-Feb-18 12:29N 51°53' E 004°17'0 0.0
2018-Feb-18 11:47N 51°53' E 004°17'0 0.0
2018-Feb-18 11:29N 51°53' E 004°17'0 0.0
2018-Feb-18 10:56N 51°53' E 004°17'0 0.0
2018-Feb-18 10:29N 51°53' E 004°17'0 0.0
2018-Feb-18 09:47N 51°53' E 004°17'0 0.0
2018-Feb-18 09:26N 51°53' E 004°17'0 0.0
2018-Feb-18 08:55N 51°53' E 004°17'0 0.0
2018-Feb-18 08:29N 51°53' E 004°17'0 0.0
2018-Feb-18 07:53N 51°53' E 004°17'0 0.0
2018-Feb-18 07:20N 51°53' E 004°17'0 0.0
2018-Feb-18 06:50N 51°53' E 004°17'0 0.0
2018-Feb-18 06:28N 51°53' E 004°17'0 0.0
2018-Feb-18 05:55N 51°53' E 004°17'0 0.0
2018-Feb-18 05:29N 51°53' E 004°17'0 0.0
2018-Feb-18 04:55N 51°53' E 004°17'0 0.0
2018-Feb-18 04:23N 51°53' E 004°17'0 0.0
2018-Feb-18 03:58N 51°53' E 004°17'0 0.0
2018-Feb-18 03:29N 51°53' E 004°17'0 0.0
2018-Feb-18 02:50N 51°53' E 004°17'0 0.0
2018-Feb-18 02:29N 51°53' E 004°17'0 0.0
2018-Feb-18 01:59N 51°53' E 004°17'0 0.0
2018-Feb-18 01:28N 51°53' E 004°17'0 0.0
2018-Feb-18 00:55N 51°53' E 004°17'0 0.0
2018-Feb-18 00:29N 51°53' E 004°17'0 0.0
2018-Feb-17 23:58N 51°53' E 004°17'0 0.0
2018-Feb-17 23:28N 51°53' E 004°17'0 0.0
2018-Feb-17 22:58N 51°53' E 004°17'0 0.0
2018-Feb-17 22:20N 51°53' E 004°17'0 0.0
2018-Feb-17 21:58N 51°53' E 004°17'0 0.0
2018-Feb-17 21:28N 51°53' E 004°17'0 0.0
2018-Feb-17 20:52N 51°53' E 004°17'0 0.0
2018-Feb-17 20:28N 51°53' E 004°17'0 0.0
2018-Feb-17 19:49N 51°53' E 004°17'0 0.0
2018-Feb-17 19:25N 51°53' E 004°17'0 0.0
2018-Feb-17 18:59N 51°53' E 004°17'0 0.0
2018-Feb-17 18:20N 51°53' E 004°17'0 0.0
2018-Feb-17 17:55N 51°53' E 004°17'0 0.0
2018-Feb-17 17:22N 51°53' E 004°17'0 0.0
2018-Feb-17 16:58N 51°53' E 004°17'0 0.0
2018-Feb-17 16:22N 51°53' E 004°17'0 0.0
2018-Feb-17 15:55N 51°53' E 004°17'0 0.0
2018-Feb-17 15:29N 51°53' E 004°17'0 0.0
2018-Feb-17 14:58N 51°53' E 004°17'0 0.0
2018-Feb-17 14:25N 51°53' E 004°17'0 0.0
2018-Feb-17 13:55N 51°53' E 004°17'0 0.0
2018-Feb-17 13:28N 51°53' E 004°17'0 0.0
2018-Feb-17 12:55N 51°53' E 004°17'0 0.0
2018-Feb-17 12:28N 51°53' E 004°17'0 0.0
2018-Feb-17 11:55N 51°53' E 004°17'0 0.0
2018-Feb-17 11:28N 51°53' E 004°17'0 0.0
2018-Feb-17 10:55N 51°53' E 004°17'0 0.0
2018-Feb-17 10:25N 51°53' E 004°17'0 0.0
2018-Feb-17 09:55N 51°53' E 004°17'0 0.0
2018-Feb-17 09:28N 51°53' E 004°17'0 0.0
2018-Feb-17 08:55N 51°53' E 004°17'0 0.0
2018-Feb-17 08:28N 51°53' E 004°17'0 0.0
2018-Feb-17 07:55N 51°53' E 004°17'0 0.0
2018-Feb-17 07:28N 51°53' E 004°17'0 0.0
2018-Feb-17 06:58N 51°53' E 004°17'0 0.0
2018-Feb-17 06:25N 51°53' E 004°17'0 0.0
2018-Feb-17 05:49N 51°53' E 004°17'0 0.0
2018-Feb-17 05:28N 51°53' E 004°17'0 0.0
2018-Feb-17 04:52N 51°53' E 004°17'0 0.0
2018-Feb-17 04:22N 51°53' E 004°17'0 0.0
2018-Feb-17 03:58N 51°53' E 004°17'0 0.0
2018-Feb-17 03:28N 51°53' E 004°17'0 0.0
2018-Feb-17 02:58N 51°53' E 004°17'0 0.0
2018-Feb-17 02:10N 51°53' E 004°17'0 0.0
2018-Feb-17 01:52N 51°53' E 004°17'0 0.0
2018-Feb-17 01:25N 51°53' E 004°17'0 0.0
2018-Feb-17 00:55N 51°53' E 004°17'0 0.0
2018-Feb-17 00:25N 51°53' E 004°17'0 0.0
2018-Feb-16 23:49N 51°53' E 004°17'0 0.0
2018-Feb-16 23:28N 51°53' E 004°17'0 0.0
2018-Feb-16 22:58N 51°53' E 004°17'0 0.0
2018-Feb-16 22:25N 51°53' E 004°17'0 0.0
2018-Feb-16 21:58N 51°53' E 004°17'0 0.0
2018-Feb-16 21:28N 51°53' E 004°17'0 0.0
2018-Feb-16 21:01N 51°53' E 004°17'1 1.3
2018-Feb-16 20:30N 51°53' E 004°18'2 4.5
2018-Feb-16 20:01N 51°55' E 004°15'4 7.5
2018-Feb-16 19:30N 51°57' E 004°10'4 8.5
2018-Feb-16 19:00N 51°59' E 004°04'510.7
2018-Feb-16 18:30N 51°60' E 003°56'4 8.9
2018-Feb-16 18:01N 51°60' E 003°49'4 8.1
2018-Feb-16 17:30N 51°59' E 003°42'812.7
2018-Feb-16 16:54N 51°56' E 003°31'613.8
2018-Feb-16 16:28N 51°55' E 003°21'813.9
2018-Feb-16 15:54N 51°53' E 003°09'714.1
2018-Feb-16 15:25N 51°51' E 002°58'814.4
2018-Feb-16 14:53N 51°49' E 002°46'614.4
2018-Feb-16 14:28N 51°46' E 002°38'715.1
2018-Feb-16 14:00N 51°40' E 002°30'715.0
2018-Feb-16 13:31N 51°35' E 002°22'714.7
2018-Feb-16 13:00N 51°30' E 002°14'714.0
2018-Feb-16 12:30N 51°24' E 002°08'713.9
2018-Feb-16 12:01N 51°17' E 002°07'714.1
2018-Feb-16 11:31N 51°11' E 001°59'714.2
2018-Feb-16 11:00N 51°08' E 001°50'714.1
2018-Feb-16 10:31N 51°03' E 001°41'713.1
2018-Feb-16 10:00N 50°59' E 001°33'612.2
2018-Feb-16 09:30N 50°54' E 001°27'5010.9
2018-Feb-16 04:53N 50°24' E 000°24'611.7
2018-Feb-16 04:20N 50°22' E 000°14'411.4
2018-Feb-16 03:57N 50°21' E 000°08'511.6
2018-Feb-16 03:28N 50°19' W 000°00'611.5
2018-Feb-16 02:59N 50°17' W 000°09'3011.3
2018-Feb-16 00:17N 50°09' W 000°55'312.2
2018-Feb-16 00:00N 50°08' W 000°60'612.7
2018-Feb-15 23:30N 50°06' W 001°09'713.5
2018-Feb-15 23:00N 50°04' W 001°19'714.3
2018-Feb-15 22:30N 50°02' W 001°30'715.0
2018-Feb-15 22:01N 49°60' W 001°41'815.6
2018-Feb-15 21:30N 49°58' W 001°53'815.9
2018-Feb-15 21:00N 49°56' W 002°05'3015.7
2018-Feb-15 19:05N 49°49' W 002°50'10813.6
2018-Feb-15 11:07N 48°56' W 005°15'1211.4
2018-Feb-15 10:03N 48°49' W 005°30'211.4
2018-Feb-15 09:52N 48°48' W 005°33'510.7
2018-Feb-15 09:23N 48°44' W 005°39'711.2
2018-Feb-15 08:49N 48°39' W 005°43'511.3
2018-Feb-15 08:22N 48°34' W 005°47'  

Dump ship's entire track history